Time,TemperatureF,DewpointF,PressureIn,WindDirection,WindDirectionDegrees,WindSpeedMPH,WindSpeedGustMPH,Humidity,HourlyPrecipIn,Conditions,Clouds,dailyrainin,SolarRadiationWatts/m^2,SoftwareType,DateUTC
2013-05-08 00:00:00,58.9,57.2,29.97,NNW,336,0.0,0.0,94,0.00,CLR,,0.00,0.0,WeatherDisplay:10.37,2013-05-08 05:00:00,
2013-05-08 00:10:00,58.7,57.0,29.97,NNW,335,0.0,1.0,94,0.00,CLR,,0.00,0.0,WeatherDisplay:10.37,2013-05-08 05:10:00,
2013-05-08 00:20:00,58.5,56.8,29.97,NNW,336,0.0,0.0,94,0.00,CLR,,0.00,0.0,WeatherDisplay:10.37,2013-05-08 05:20:00,
2013-05-08 00:30:00,58.3,56.9,29.97,NNW,335,0.0,0.0,95,0.00,CLR,,0.00,0.0,WeatherDisplay:10.37,2013-05-08 05:30:00,
2013-05-08 00:40:00,58.2,56.8,29.97,NNW,335,0.0,0.0,95,0.00,CLR,,0.00,0.0,WeatherDisplay:10.37,2013-05-08 05:40:00,
2013-05-08 00:50:00,58.2,56.8,29.96,NNW,336,0.0,0.0,95,0.00,CLR,,0.00,0.0,WeatherDisplay:10.37,2013-05-08 05:50:00,
2013-05-08 01:00:00,58.4,56.7,29.96,NNW,335,0.0,0.0,94,0.00,CLR,,0.00,0.0,WeatherDisplay:10.37,2013-05-08 06:00:00,
2013-05-08 01:10:00,58.3,56.6,29.96,NNW,335,0.0,0.0,94,0.00,CLR,,0.00,0.0,WeatherDisplay:10.37,2013-05-08 06:10:00,
2013-05-08 01:20:00,58.2,56.5,29.96,NNW,334,0.0,1.0,94,0.00,CLR,,0.00,0.0,WeatherDisplay:10.37,2013-05-08 06:20:00,
2013-05-08 01:30:00,58.0,56.2,29.95,NNW,331,0.0,0.0,94,0.00,CLR,,0.00,0.0,WeatherDisplay:10.37,2013-05-08 06:30:00,
2013-05-08 01:40:00,58.0,56.3,29.95,NW,317,0.0,1.0,94,0.00,CLR,,0.00,0.0,WeatherDisplay:10.37,2013-05-08 06:40:00,
2013-05-08 01:50:00,57.9,55.9,29.95,WSW,256,0.0,1.0,93,0.00,CLR,,0.00,0.0,WeatherDisplay:10.37,2013-05-08 06:50:00,
2013-05-08 02:00:00,57.8,55.8,29.95,WSW,258,0.0,1.0,93,0.00,CLR,,0.00,0.0,WeatherDisplay:10.37,2013-05-08 07:00:00,
2013-05-08 02:10:00,57.9,55.6,29.95,West,259,0.0,0.0,92,0.00,CLR,,0.00,0.0,WeatherDisplay:10.37,2013-05-08 07:10:00,
2013-05-08 02:20:00,57.8,55.5,29.95,West,259,0.0,0.0,92,0.00,CLR,,0.00,0.0,WeatherDisplay:10.37,2013-05-08 07:20:00,
2013-05-08 02:30:00,57.7,55.4,29.95,West,259,0.0,0.0,92,0.00,CLR,,0.00,0.0,WeatherDisplay:10.37,2013-05-08 07:30:00,
2013-05-08 02:40:00,57.7,55.3,29.95,West,259,0.0,0.0,92,0.00,CLR,,0.00,0.0,WeatherDisplay:10.37,2013-05-08 07:40:00,
2013-05-08 02:50:00,57.4,55.1,29.95,West,259,0.0,1.0,92,0.00,CLR,,0.00,0.0,WeatherDisplay:10.37,2013-05-08 07:50:00,
2013-05-08 03:00:00,57.0,55.0,29.95,West,259,0.0,0.0,93,0.00,CLR,,0.00,0.0,WeatherDisplay:10.37,2013-05-08 08:00:00,
2013-05-08 03:10:00,56.7,54.7,29.95,West,259,0.0,0.0,93,0.00,CLR,,0.00,0.0,WeatherDisplay:10.37,2013-05-08 08:10:00,
2013-05-08 03:20:00,56.8,55.1,29.96,West,259,0.0,0.0,94,0.00,CLR,,0.00,0.0,WeatherDisplay:10.37,2013-05-08 08:20:00,
2013-05-08 03:30:00,56.9,55.2,29.96,West,259,0.0,0.0,94,0.00,CLR,,0.00,0.0,WeatherDisplay:10.37,2013-05-08 08:30:00,
2013-05-08 03:40:00,57.1,55.1,29.96,West,259,0.0,0.0,93,0.00,CLR,,0.00,0.0,WeatherDisplay:10.37,2013-05-08 08:40:00,
2013-05-08 03:50:00,56.9,54.9,29.96,West,259,0.0,0.0,93,0.00,CLR,,0.00,0.0,WeatherDisplay:10.37,2013-05-08 08:50:00,
2013-05-08 04:00:00,56.7,54.7,29.97,West,259,0.0,0.0,93,0.00,CLR,,0.00,0.0,WeatherDisplay:10.37,2013-05-08 09:00:00,
2013-05-08 04:10:00,56.6,54.9,29.97,West,259,0.0,0.0,94,0.00,CLR,,0.00,0.0,WeatherDisplay:10.37,2013-05-08 09:10:00,
2013-05-08 04:20:00,56.6,54.9,29.97,West,259,0.0,0.0,94,0.00,CLR,,0.00,0.0,WeatherDisplay:10.37,2013-05-08 09:20:00,
2013-05-08 04:30:00,56.3,54.6,29.97,West,259,0.0,1.0,94,0.00,CLR,,0.00,0.0,WeatherDisplay:10.37,2013-05-08 09:30:00,
2013-05-08 04:40:00,56.2,54.8,29.97,West,259,0.0,1.0,95,0.00,CLR,,0.00,0.0,WeatherDisplay:10.37,2013-05-08 09:40:00,
2013-05-08 04:50:00,56.1,54.4,29.97,West,259,0.0,0.0,94,0.00,CLR,,0.00,0.0,WeatherDisplay:10.37,2013-05-08 09:50:00,
2013-05-08 05:00:00,56.1,54.7,29.97,West,259,0.0,0.0,95,0.00,CLR,,0.00,0.0,WeatherDisplay:10.37,2013-05-08 10:00:00,
2013-05-08 05:10:00,56.3,54.9,29.97,WSW,256,0.0,1.0,95,0.00,CLR,,0.00,0.0,WeatherDisplay:10.37,2013-05-08 10:10:00,
2013-05-08 05:20:00,56.8,55.1,29.97,WSW,255,0.0,0.0,94,0.00,CLR,,0.00,0.0,WeatherDisplay:10.37,2013-05-08 10:20:00,
2013-05-08 05:30:00,56.9,54.9,29.97,WSW,255,0.0,1.0,93,0.00,CLR,,0.00,0.0,WeatherDisplay:10.37,2013-05-08 10:30:00,
2013-05-08 05:40:00,56.8,54.8,29.98,SW,221,0.0,1.0,93,0.00,CLR,,0.00,0.0,WeatherDisplay:10.37,2013-05-08 10:40:00,
2013-05-08 05:50:00,56.3,54.3,29.98,SW,225,0.0,0.0,93,0.00,CLR,,0.00,0.0,WeatherDisplay:10.37,2013-05-08 10:50:00,
2013-05-08 06:00:00,56.1,54.4,29.98,SW,225,0.0,0.0,94,0.00,CLR,,0.00,0.0,WeatherDisplay:10.37,2013-05-08 11:00:00,
2013-05-08 06:10:00,56.1,54.4,29.99,SW,226,0.0,1.0,94,0.00,CLR,,0.00,0.0,WeatherDisplay:10.37,2013-05-08 11:10:00,
2013-05-08 06:20:00,55.6,53.9,29.99,SW,225,0.0,1.0,94,0.00,CLR,,0.00,0.0,WeatherDisplay:10.37,2013-05-08 11:20:00,
2013-05-08 06:30:00,55.3,53.6,30.00,SSW,210,1.0,2.0,94,0.00,CLR,,0.00,0.0,WeatherDisplay:10.37,2013-05-08 11:30:00,
2013-05-08 06:40:00,55.5,53.8,30.00,NE,52,0.0,2.0,94,0.00,CLR,,0.00,0.0,WeatherDisplay:10.37,2013-05-08 11:40:00,
2013-05-08 06:50:00,56.5,55.0,30.00,NE,51,0.0,1.0,95,0.00,CLR,,0.00,0.0,WeatherDisplay:10.37,2013-05-08 11:50:00,
2013-05-08 07:00:00,57.7,55.7,30.00,NE,51,0.0,1.0,93,0.00,OVC,,0.00,0.0,WeatherDisplay:10.37,2013-05-08 12:00:00,
2013-05-08 07:10:00,59.0,56.7,30.00,NE,51,0.0,1.0,92,0.00,CLR,,0.00,0.0,WeatherDisplay:10.37,2013-05-08 12:10:00,
2013-05-08 07:20:00,59.9,57.3,30.01,NE,51,0.0,1.0,91,0.00,CLR,,0.00,0.0,WeatherDisplay:10.37,2013-05-08 12:20:00,
2013-05-08 07:30:00,61.7,58.4,30.01,ENE,61,0.0,1.0,89,0.00,CLR,,0.00,0.0,WeatherDisplay:10.37,2013-05-08 12:30:00,
2013-05-08 07:40:00,63.2,59.6,30.01,ENE,61,0.0,1.0,88,0.00,CLR,,0.00,0.0,WeatherDisplay:10.37,2013-05-08 12:40:00,
2013-05-08 07:50:00,64.6,59.7,30.01,NNW,347,0.0,2.0,84,0.00,CLR,,0.00,0.0,WeatherDisplay:10.37,2013-05-08 12:50:00,
2013-05-08 08:00:00,65.5,59.5,30.01,NW,311,2.0,4.0,81,0.00,CLR,,0.00,0.0,WeatherDisplay:10.37,2013-05-08 13:00:00,
2013-05-08 08:10:00,66.0,59.7,30.02,NW,311,2.0,5.0,80,0.00,CLR,,0.00,0.0,WeatherDisplay:10.37,2013-05-08 13:10:00,
2013-05-08 08:20:00,66.8,59.7,30.02,NW,326,3.0,6.0,78,0.00,CLR,,0.00,0.0,WeatherDisplay:10.37,2013-05-08 13:20:00,
2013-05-08 08:30:00,67.7,59.8,30.02,NW,326,3.0,6.0,76,0.00,CLR,,0.00,0.0,WeatherDisplay:10.37,2013-05-08 13:30:00,
2013-05-08 08:40:00,68.9,60.3,30.02,NW,306,2.0,5.0,74,0.00,CLR,,0.00,0.0,WeatherDisplay:10.37,2013-05-08 13:40:00,
2013-05-08 08:50:00,69.6,60.6,30.02,NW,314,2.0,7.0,73,0.00,CLR,,0.00,0.0,WeatherDisplay:10.37,2013-05-08 13:50:00,
2013-05-08 09:00:00,70.4,61.0,30.02,NW,318,2.0,6.0,72,0.00,CLR,,0.00,0.0,WeatherDisplay:10.37,2013-05-08 14:00:00,
2013-05-08 09:10:00,71.8,61.1,30.02,WNW,296,2.0,7.0,69,0.00,CLR,,0.00,0.0,WeatherDisplay:10.37,2013-05-08 14:10:00,
2013-05-08 09:20:00,71.8,60.7,30.02,NW,306,2.0,8.0,68,0.00,CLR,,0.00,0.0,WeatherDisplay:10.37,2013-05-08 14:20:00,
2013-05-08 09:30:00,72.3,60.3,30.02,NW,311,5.0,7.0,66,0.00,CLR,,0.00,0.0,WeatherDisplay:10.37,2013-05-08 14:30:00,
2013-05-08 09:40:00,73.2,60.7,30.02,NW,313,3.0,7.0,65,0.00,CLR,,0.00,0.0,WeatherDisplay:10.37,2013-05-08 14:40:00,
2013-05-08 09:50:00,73.3,61.2,30.03,NW,318,1.0,9.0,66,0.00,CLR,,0.00,0.0,WeatherDisplay:10.37,2013-05-08 14:50:00,
2013-05-08 10:00:00,73.9,60.0,30.03,NW,305,3.0,9.0,62,0.00,CLR,,0.00,0.0,WeatherDisplay:10.37,2013-05-08 15:00:00,
2013-05-08 10:10:00,74.9,60.5,30.03,WNW,292,6.0,9.0,61,0.00,CLR,,0.00,0.0,WeatherDisplay:10.37,2013-05-08 15:10:00,
2013-05-08 10:20:00,74.8,60.4,30.03,NW,312,6.0,12.0,61,0.00,CLR,,0.00,0.0,WeatherDisplay:10.37,2013-05-08 15:20:00,
2013-05-08 10:30:00,75.0,59.7,30.03,NW,321,5.0,10.0,59,0.00,CLR,,0.00,0.0,WeatherDisplay:10.37,2013-05-08 15:30:00,
2013-05-08 10:40:00,75.4,59.1,30.03,NNW,327,7.0,10.0,57,0.00,CLR,,0.00,0.0,WeatherDisplay:10.37,2013-05-08 15:40:00,
2013-05-08 10:50:00,76.0,59.6,30.03,NW,310,1.0,7.0,57,0.00,CLR,,0.00,0.0,WeatherDisplay:10.37,2013-05-08 15:50:00,
2013-05-08 11:00:00,76.4,59.1,30.03,NW,314,6.0,9.0,55,0.00,CLR,,0.00,0.0,WeatherDisplay:10.37,2013-05-08 16:00:00,
2013-05-08 11:10:00,77.1,59.7,30.03,NW,306,5.0,7.0,55,0.00,CLR,,0.00,0.0,WeatherDisplay:10.37,2013-05-08 16:10:00,
2013-05-08 11:20:00,77.7,59.7,30.03,West,281,1.0,7.0,54,0.00,CLR,,0.00,0.0,WeatherDisplay:10.37,2013-05-08 16:20:00,
2013-05-08 11:30:00,78.1,58.5,30.03,WNW,301,2.0,8.0,51,0.00,CLR,,0.00,0.0,WeatherDisplay:10.37,2013-05-08 16:30:00,
2013-05-08 11:40:00,78.6,59.5,30.03,WNW,290,2.0,8.0,52,0.00,CLR,,0.00,0.0,WeatherDisplay:10.37,2013-05-08 16:40:00,
2013-05-08 11:50:00,78.1,57.9,30.03,WNW,301,3.0,7.0,50,0.00,CLR,,0.00,0.0,WeatherDisplay:10.37,2013-05-08 16:50:00,
2013-05-08 12:00:00,78.3,54.6,30.03,NW,313,6.0,10.0,44,0.00,CLR,,0.00,0.0,WeatherDisplay:10.37,2013-05-08 17:00:00,
2013-05-08 12:10:00,79.0,59.9,30.03,WNW,286,3.0,8.0,52,0.00,CLR,,0.00,0.0,WeatherDisplay:10.37,2013-05-08 17:10:00,
2013-05-08 12:20:00,78.4,58.8,30.02,WNW,295,3.0,8.0,51,0.00,CLR,,0.00,0.0,WeatherDisplay:10.37,2013-05-08 17:20:00,
2013-05-08 12:30:00,78.0,55.5,30.02,WNW,283,3.0,8.0,46,0.00,CLR,,0.00,0.0,WeatherDisplay:10.37,2013-05-08 17:30:00,
2013-05-08 12:40:00,79.6,56.4,30.02,NNW,339,5.0,9.0,45,0.00,CLR,,0.00,0.0,WeatherDisplay:10.37,2013-05-08 17:40:00,
2013-05-08 12:50:00,79.2,60.0,30.01,WNW,290,2.0,8.0,52,0.00,CLR,,0.00,0.0,WeatherDisplay:10.37,2013-05-08 17:50:00,
2013-05-08 13:00:00,79.2,58.4,30.01,North,357,3.0,7.0,49,0.00,CLR,,0.00,0.0,WeatherDisplay:10.37,2013-05-08 18:00:00,
2013-05-08 13:10:00,78.3,58.1,30.01,NNW,333,1.0,7.0,50,0.00,CLR,,0.00,0.0,WeatherDisplay:10.37,2013-05-08 18:10:00,
2013-05-08 13:20:00,78.5,59.4,30.01,WSW,248,1.0,6.0,52,0.00,CLR,,0.00,0.0,WeatherDisplay:10.37,2013-05-08 18:20:00,
2013-05-08 13:30:00,79.9,58.5,30.01,SW,217,2.0,6.0,48,0.00,CLR,,0.00,0.0,WeatherDisplay:10.37,2013-05-08 18:30:00,
2013-05-08 13:40:00,80.5,58.4,30.01,WSW,237,5.0,7.0,47,0.00,CLR,,0.00,0.0,WeatherDisplay:10.37,2013-05-08 18:40:00,
2013-05-08 13:50:00,79.9,57.8,30.01,SW,218,2.0,10.0,47,0.00,CLR,,0.00,0.0,WeatherDisplay:10.37,2013-05-08 18:50:00,
2013-05-08 14:00:00,79.6,57.0,30.00,NW,310,0.0,7.0,46,0.00,CLR,,0.00,0.0,WeatherDisplay:10.37,2013-05-08 19:00:00,
2013-05-08 14:10:00,80.8,59.3,30.00,SW,223,3.0,6.0,48,0.00,CLR,,0.00,0.0,WeatherDisplay:10.37,2013-05-08 19:10:00,
2013-05-08 14:20:00,80.9,56.3,30.00,West,266,3.0,6.0,43,0.00,CLR,,0.00,0.0,WeatherDisplay:10.37,2013-05-08 19:20:00,
2013-05-08 14:30:00,80.8,55.5,30.00,NW,305,3.0,8.0,42,0.00,CLR,,0.00,0.0,WeatherDisplay:10.37,2013-05-08 19:30:00,
2013-05-08 14:40:00,81.0,55.7,30.00,West,274,3.0,9.0,42,0.00,CLR,,0.00,0.0,WeatherDisplay:10.37,2013-05-08 19:40:00,
2013-05-08 14:50:00,81.5,58.7,29.99,SW,233,3.0,7.0,46,0.00,CLR,,0.00,0.0,WeatherDisplay:10.37,2013-05-08 19:50:00,
2013-05-08 15:00:00,81.9,55.2,29.99,NW,305,3.0,8.0,40,0.00,CLR,,0.00,0.0,WeatherDisplay:10.37,2013-05-08 20:00:00,
2013-05-08 15:10:00,81.6,55.0,29.99,West,265,3.0,9.0,40,0.00,CLR,,0.00,0.0,WeatherDisplay:10.37,2013-05-08 20:10:00,
2013-05-08 15:20:00,81.7,55.0,29.99,WSW,246,5.0,9.0,40,0.00,CLR,,0.00,0.0,WeatherDisplay:10.37,2013-05-08 20:20:00,
2013-05-08 15:30:00,82.1,56.0,29.99,WNW,286,2.0,8.0,41,0.00,CLR,,0.00,0.0,WeatherDisplay:10.37,2013-05-08 20:30:00,
2013-05-08 15:40:00,82.7,56.0,29.98,West,277,3.0,7.0,40,0.00,CLR,,0.00,0.0,WeatherDisplay:10.37,2013-05-08 20:40:00,
2013-05-08 15:50:00,82.3,55.6,29.98,WNW,289,2.0,6.0,40,0.00,CLR,,0.00,0.0,WeatherDisplay:10.37,2013-05-08 20:50:00,
2013-05-08 16:00:00,82.1,55.3,29.98,WNW,291,3.0,10.0,40,0.00,CLR,,0.00,0.0,WeatherDisplay:10.37,2013-05-08 21:00:00,
2013-05-08 16:10:00,81.8,56.4,29.98,WNW,298,2.0,6.0,42,0.00,CLR,,0.00,0.0,WeatherDisplay:10.37,2013-05-08 21:10:00,
2013-05-08 16:20:00,81.0,57.0,29.98,WSW,245,5.0,10.0,44,0.00,CLR,,0.00,0.0,WeatherDisplay:10.37,2013-05-08 21:20:00,
2013-05-08 16:30:00,80.9,56.9,29.98,WSW,253,5.0,8.0,44,0.00,CLR,,0.00,0.0,WeatherDisplay:10.37,2013-05-08 21:30:00,
2013-05-08 16:40:00,80.9,57.0,29.98,West,261,2.0,8.0,44,0.00,CLR,,0.00,0.0,WeatherDisplay:10.37,2013-05-08 21:40:00,
2013-05-08 16:50:00,80.4,57.1,29.98,West,280,2.0,5.0,45,0.00,CLR,,0.00,0.0,WeatherDisplay:10.37,2013-05-08 21:50:00,
2013-05-08 17:00:00,79.4,58.6,29.97,SW,235,1.0,5.0,49,0.00,CLR,,0.00,0.0,WeatherDisplay:10.37,2013-05-08 22:00:00,
2013-05-08 17:10:00,79.6,57.0,29.97,West,278,1.0,5.0,46,0.00,CLR,,0.00,0.0,WeatherDisplay:10.37,2013-05-08 22:10:00,
2013-05-08 17:20:00,80.9,56.9,29.97,WSW,237,1.0,7.0,44,0.00,CLR,,0.00,0.0,WeatherDisplay:10.37,2013-05-08 22:20:00,
2013-05-08 17:30:00,81.0,56.4,29.97,WNW,303,2.0,6.0,43,0.00,CLR,,0.00,0.0,WeatherDisplay:10.37,2013-05-08 22:30:00,
2013-05-08 17:40:00,80.9,56.3,29.97,WNW,299,2.0,5.0,43,0.00,CLR,,0.00,0.0,WeatherDisplay:10.37,2013-05-08 22:40:00,
2013-05-08 17:50:00,80.0,57.4,29.97,WSW,255,1.0,5.0,46,0.00,CLR,,0.00,0.0,WeatherDisplay:10.37,2013-05-08 22:50:00,
2013-05-08 18:00:00,79.4,56.8,29.97,WSW,252,1.0,5.0,46,0.00,CLR,,0.00,0.0,WeatherDisplay:10.37,2013-05-08 23:00:00,
2013-05-08 18:10:00,79.9,57.3,29.97,WSW,249,1.0,5.0,46,0.00,CLR,,0.00,0.0,WeatherDisplay:10.37,2013-05-08 23:10:00,
2013-05-08 18:20:00,79.7,56.5,29.96,SW,226,2.0,7.0,45,0.00,CLR,,0.00,0.0,WeatherDisplay:10.37,2013-05-08 23:20:00,
2013-05-08 18:30:00,79.6,57.0,29.96,SW,229,1.0,5.0,46,0.00,CLR,,0.00,0.0,WeatherDisplay:10.37,2013-05-08 23:30:00,
2013-05-08 18:40:00,79.3,57.3,29.96,WSW,243,1.0,4.0,47,0.00,CLR,,0.00,0.0,WeatherDisplay:10.37,2013-05-08 23:40:00,
2013-05-08 18:50:00,77.7,58.1,29.96,SW,225,1.0,4.0,51,0.00,CLR,,0.00,0.0,WeatherDisplay:10.37,2013-05-08 23:50:00,
2013-05-08 19:00:00,77.2,57.7,29.96,WSW,251,0.0,2.0,51,0.00,CLR,,0.00,0.0,WeatherDisplay:10.37,2013-05-09 00:00:00,
2013-05-08 19:10:00,77.1,57.6,29.95,WSW,250,0.0,2.0,51,0.00,CLR,,0.00,0.0,WeatherDisplay:10.37,2013-05-09 00:10:00,
2013-05-08 19:20:00,76.4,57.4,29.95,WSW,248,0.0,0.0,52,0.00,CLR,,0.00,0.0,WeatherDisplay:10.37,2013-05-09 00:20:00,
2013-05-08 19:30:00,75.5,57.7,29.95,WSW,248,0.0,0.0,54,0.00,CLR,,0.00,0.0,WeatherDisplay:10.37,2013-05-09 00:30:00,
2013-05-08 19:40:00,74.9,58.1,29.96,SW,228,0.0,1.0,56,0.00,CLR,,0.00,0.0,WeatherDisplay:10.37,2013-05-09 00:40:00,
2013-05-08 19:50:00,73.7,60.4,29.96,SSW,207,0.0,1.0,63,0.00,CLR,,0.00,0.0,WeatherDisplay:10.37,2013-05-09 00:50:00,
2013-05-08 20:00:00,73.0,58.7,29.96,SSW,207,0.0,1.0,61,0.00,CLR,,0.00,0.0,WeatherDisplay:10.37,2013-05-09 01:00:00,
2013-05-08 20:10:00,72.4,58.6,29.96,SSW,207,0.0,1.0,62,0.00,CLR,,0.00,0.0,WeatherDisplay:10.37,2013-05-09 01:10:00,
2013-05-08 20:20:00,71.8,58.1,29.97,SSW,207,0.0,0.0,62,0.00,CLR,,0.00,0.0,WeatherDisplay:10.37,2013-05-09 01:20:00,
2013-05-08 20:30:00,71.3,58.5,29.97,SSW,207,0.0,1.0,64,0.00,CLR,,0.00,0.0,WeatherDisplay:10.37,2013-05-09 01:30:00,
2013-05-08 20:40:00,71.0,59.1,29.97,SSW,207,0.0,1.0,66,0.00,CLR,,0.00,0.0,WeatherDisplay:10.37,2013-05-09 01:40:00,
2013-05-08 20:50:00,70.5,59.0,29.97,SSW,207,0.0,1.0,67,0.00,BKN,,0.00,0.0,WeatherDisplay:10.37,2013-05-09 01:50:00,
2013-05-08 21:00:00,69.9,58.9,29.98,SSW,207,0.0,1.0,68,0.00,BKN,,0.00,0.0,WeatherDisplay:10.37,2013-05-09 02:00:00,
2013-05-08 21:10:00,69.9,59.2,29.98,SSW,207,0.0,1.0,69,0.00,SCT,,0.00,0.0,WeatherDisplay:10.37,2013-05-09 02:10:00,
2013-05-08 21:20:00,70.1,59.0,29.98,SSW,208,0.0,1.0,68,0.00,SCT,,0.00,0.0,WeatherDisplay:10.37,2013-05-09 02:20:00,
2013-05-08 21:30:00,70.1,59.0,29.99,SSW,208,0.0,0.0,68,0.00,CLR,,0.00,0.0,WeatherDisplay:10.37,2013-05-09 02:30:00,
2013-05-08 21:40:00,70.4,59.3,29.99,SSW,208,0.0,0.0,68,0.00,CLR,,0.00,0.0,WeatherDisplay:10.37,2013-05-09 02:40:00,
2013-05-08 21:50:00,70.4,59.4,29.99,SSW,208,0.0,0.0,68,0.00,CLR,,0.00,0.0,WeatherDisplay:10.37,2013-05-09 02:50:00,
2013-05-08 22:00:00,70.2,59.1,29.99,SSW,208,0.0,0.0,68,0.00,CLR,,0.00,0.0,WeatherDisplay:10.37,2013-05-09 03:00:00,
2013-05-08 22:10:00,70.0,59.4,29.99,SSW,208,0.0,0.0,69,0.00,CLR,,0.00,0.0,WeatherDisplay:10.37,2013-05-09 03:10:00,
2013-05-08 22:20:00,69.7,59.5,29.99,SSW,208,0.0,0.0,70,0.00,CLR,,0.00,0.0,WeatherDisplay:10.37,2013-05-09 03:20:00,
2013-05-08 22:30:00,69.3,59.9,29.99,SSW,208,0.0,0.0,72,0.00,CLR,,0.00,0.0,WeatherDisplay:10.37,2013-05-09 03:30:00,
2013-05-08 22:40:00,69.1,60.1,29.99,South,172,0.0,0.0,73,0.00,CLR,,0.00,0.0,WeatherDisplay:10.37,2013-05-09 03:40:00,
2013-05-08 22:50:00,69.2,60.2,29.98,SSE,162,0.0,0.0,73,0.00,CLR,,0.00,0.0,WeatherDisplay:10.37,2013-05-09 03:50:00,
2013-05-08 23:00:00,68.9,59.9,29.98,SSE,162,0.0,0.0,73,0.00,CLR,,0.00,0.0,WeatherDisplay:10.37,2013-05-09 04:00:00,
2013-05-08 23:10:00,68.6,60.4,29.98,SSE,162,0.0,0.0,75,0.00,CLR,,0.00,0.0,WeatherDisplay:10.37,2013-05-09 04:10:00,
2013-05-08 23:20:00,68.4,60.1,29.98,SSE,162,0.0,0.0,75,0.00,CLR,,0.00,0.0,WeatherDisplay:10.37,2013-05-09 04:20:00,
2013-05-08 23:30:00,68.3,59.7,29.98,SSE,162,0.0,0.0,74,0.00,CLR,,0.00,0.0,WeatherDisplay:10.37,2013-05-09 04:30:00,
2013-05-08 23:40:00,67.9,60.1,29.98,SSE,162,0.0,0.0,76,0.00,CLR,,0.00,0.0,WeatherDisplay:10.37,2013-05-09 04:40:00,
2013-05-08 23:50:00,67.6,59.7,29.98,SSE,162,0.0,0.0,76,0.00,CLR,,0.00,0.0,WeatherDisplay:10.37,2013-05-09 04:50:00,